sensor_id;sensor_type;location;lat;lon;timestamp;P1;durP1;ratioP1;P2;durP2;ratioP2
27303;SDS011;14791;52.392;13.092;2023-10-19T00:01:17;7.00;;;6.60;;
27303;SDS011;14791;52.392;13.092;2023-10-19T00:03:48;6.50;;;6.20;;
27303;SDS011;14791;52.392;13.092;2023-10-19T00:06:17;6.93;;;6.53;;
27303;SDS011;14791;52.392;13.092;2023-10-19T00:08:46;6.97;;;6.57;;
27303;SDS011;14791;52.392;13.092;2023-10-19T00:11:14;7.07;;;6.67;;
27303;SDS011;14791;52.392;13.092;2023-10-19T00:13:51;7.23;;;6.83;;
27303;SDS011;14791;52.392;13.092;2023-10-19T00:16:22;6.87;;;6.47;;
27303;SDS011;14791;52.392;13.092;2023-10-19T00:18:53;6.93;;;6.53;;
27303;SDS011;14791;52.392;13.092;2023-10-19T00:21:23;6.90;;;6.50;;
27303;SDS011;14791;52.392;13.092;2023-10-19T00:23:53;6.90;;;6.50;;
27303;SDS011;14791;52.392;13.092;2023-10-19T00:26:31;6.87;;;6.47;;
27303;SDS011;14791;52.392;13.092;2023-10-19T00:29:00;6.67;;;6.27;;
27303;SDS011;14791;52.392;13.092;2023-10-19T00:31:31;6.73;;;6.23;;
27303;SDS011;14791;52.392;13.092;2023-10-19T00:34:01;7.03;;;6.63;;
27303;SDS011;14791;52.392;13.092;2023-10-19T00:36:30;7.43;;;6.93;;
27303;SDS011;14791;52.392;13.092;2023-10-19T00:39:01;7.57;;;6.97;;
27303;SDS011;14791;52.392;13.092;2023-10-19T00:41:31;7.13;;;6.73;;
27303;SDS011;14791;52.392;13.092;2023-10-19T00:44:01;7.27;;;6.87;;
27303;SDS011;14791;52.392;13.092;2023-10-19T00:46:32;7.60;;;7.20;;
27303;SDS011;14791;52.392;13.092;2023-10-19T00:49:02;7.23;;;6.80;;
27303;SDS011;14791;52.392;13.092;2023-10-19T00:51:37;7.13;;;6.63;;
27303;SDS011;14791;52.392;13.092;2023-10-19T00:54:11;7.13;;;6.63;;
27303;SDS011;14791;52.392;13.092;2023-10-19T00:57:04;6.97;;;6.47;;
27303;SDS011;14791;52.392;13.092;2023-10-19T00:59:38;6.93;;;6.53;;
27303;SDS011;14791;52.392;13.092;2023-10-19T01:02:12;6.93;;;6.53;;
27303;SDS011;14791;52.392;13.092;2023-10-19T01:04:46;7.20;;;6.70;;
27303;SDS011;14791;52.392;13.092;2023-10-19T01:07:27;6.70;;;6.30;;
27303;SDS011;14791;52.392;13.092;2023-10-19T01:09:58;7.23;;;6.77;;
27303;SDS011;14791;52.392;13.092;2023-10-19T01:12:43;7.87;;;7.17;;
27303;SDS011;14791;52.392;13.092;2023-10-19T01:15:12;7.30;;;6.80;;
27303;SDS011;14791;52.392;13.092;2023-10-19T01:17:48;6.83;;;6.43;;
27303;SDS011;14791;52.392;13.092;2023-10-19T01:20:26;7.77;;;7.37;;
27303;SDS011;14791;52.392;13.092;2023-10-19T01:22:59;7.97;;;7.37;;
27303;SDS011;14791;52.392;13.092;2023-10-19T01:31:18;7.03;;;6.63;;
27303;SDS011;14791;52.392;13.092;2023-10-19T01:34:00;7.27;;;6.87;;
27303;SDS011;14791;52.392;13.092;2023-10-19T01:36:31;7.70;;;7.20;;
27303;SDS011;14791;52.392;13.092;2023-10-19T01:39:05;7.30;;;6.80;;
27303;SDS011;14791;52.392;13.092;2023-10-19T01:41:35;8.17;;;7.70;;
27303;SDS011;14791;52.392;13.092;2023-10-19T01:44:04;7.57;;;7.17;;
27303;SDS011;14791;52.392;13.092;2023-10-19T01:46:38;8.37;;;7.77;;
27303;SDS011;14791;52.392;13.092;2023-10-19T01:49:07;7.87;;;7.30;;
27303;SDS011;14791;52.392;13.092;2023-10-19T01:51:36;8.27;;;7.57;;
27303;SDS011;14791;52.392;13.092;2023-10-19T01:54:09;8.60;;;8.00;;
27303;SDS011;14791;52.392;13.092;2023-10-19T01:56:38;8.40;;;7.83;;
27303;SDS011;14791;52.392;13.092;2023-10-19T01:59:09;7.40;;;7.00;;
27303;SDS011;14791;52.392;13.092;2023-10-19T02:01:38;7.97;;;7.47;;
27303;SDS011;14791;52.392;13.092;2023-10-19T02:04:08;7.07;;;6.67;;
27303;SDS011;14791;52.392;13.092;2023-10-19T02:06:39;8.23;;;7.70;;
27303;SDS011;14791;52.392;13.092;2023-10-19T02:09:12;7.63;;;6.97;;
27303;SDS011;14791;52.392;13.092;2023-10-19T02:11:53;8.93;;;8.23;;
27303;SDS011;14791;52.392;13.092;2023-10-19T02:14:26;8.20;;;7.60;;
27303;SDS011;14791;52.392;13.092;2023-10-19T02:17:00;7.73;;;7.23;;
27303;SDS011;14791;52.392;13.092;2023-10-19T02:19:31;7.97;;;7.37;;
27303;SDS011;14791;52.392;13.092;2023-10-19T02:22:01;7.73;;;7.13;;
27303;SDS011;14791;52.392;13.092;2023-10-19T02:24:38;8.13;;;7.53;;
27303;SDS011;14791;52.392;13.092;2023-10-19T02:27:07;7.53;;;7.03;;
27303;SDS011;14791;52.392;13.092;2023-10-19T02:29:36;7.60;;;7.17;;
27303;SDS011;14791;52.392;13.092;2023-10-19T02:32:05;7.80;;;7.30;;
27303;SDS011;14791;52.392;13.092;2023-10-19T02:34:34;8.13;;;7.50;;
27303;SDS011;14791;52.392;13.092;2023-10-19T02:37:03;7.83;;;7.33;;
27303;SDS011;14791;52.392;13.092;2023-10-19T02:39:32;8.07;;;7.57;;
27303;SDS011;14791;52.392;13.092;2023-10-19T02:42:01;8.00;;;7.40;;
27303;SDS011;14791;52.392;13.092;2023-10-19T02:44:30;7.97;;;7.53;;
27303;SDS011;14791;52.392;13.092;2023-10-19T02:46:59;7.67;;;7.07;;
27303;SDS011;14791;52.392;13.092;2023-10-19T02:49:30;8.07;;;7.47;;
27303;SDS011;14791;52.392;13.092;2023-10-19T02:52:00;7.97;;;7.40;;
27303;SDS011;14791;52.392;13.092;2023-10-19T02:54:31;7.90;;;7.30;;
27303;SDS011;14791;52.392;13.092;2023-10-19T02:57:03;8.50;;;7.90;;
27303;SDS011;14791;52.392;13.092;2023-10-19T02:59:36;8.10;;;7.60;;
27303;SDS011;14791;52.392;13.092;2023-10-19T03:02:06;7.10;;;6.70;;
27303;SDS011;14791;52.392;13.092;2023-10-19T03:04:36;8.87;;;8.27;;
27303;SDS011;14791;52.392;13.092;2023-10-19T03:07:06;8.50;;;7.97;;
27303;SDS011;14791;52.392;13.092;2023-10-19T03:09:36;7.80;;;7.30;;
27303;SDS011;14791;52.392;13.092;2023-10-19T03:12:21;7.80;;;7.20;;
27303;SDS011;14791;52.392;13.092;2023-10-19T03:14:52;7.77;;;7.23;;
27303;SDS011;14791;52.392;13.092;2023-10-19T03:17:21;7.90;;;7.40;;
27303;SDS011;14791;52.392;13.092;2023-10-19T03:19:51;8.40;;;7.90;;
27303;SDS011;14791;52.392;13.092;2023-10-19T03:22:21;8.40;;;7.80;;
27303;SDS011;14791;52.392;13.092;2023-10-19T03:24:50;7.90;;;7.50;;
27303;SDS011;14791;52.392;13.092;2023-10-19T03:27:21;7.43;;;6.93;;
27303;SDS011;14791;52.392;13.092;2023-10-19T03:29:51;8.13;;;7.60;;
27303;SDS011;14791;52.392;13.092;2023-10-19T03:32:23;7.97;;;7.47;;
27303;SDS011;14791;52.392;13.092;2023-10-19T03:34:54;8.27;;;7.63;;
27303;SDS011;14791;52.392;13.092;2023-10-19T03:37:24;8.63;;;8.07;;
27303;SDS011;14791;52.392;13.092;2023-10-19T03:39:57;8.00;;;7.37;;
27303;SDS011;14791;52.392;13.092;2023-10-19T03:42:26;8.43;;;7.87;;
27303;SDS011;14791;52.392;13.092;2023-10-19T03:45:05;7.97;;;7.53;;
27303;SDS011;14791;52.392;13.092;2023-10-19T03:47:36;8.90;;;8.30;;
27303;SDS011;14791;52.392;13.092;2023-10-19T03:50:06;8.50;;;7.83;;
27303;SDS011;14791;52.392;13.092;2023-10-19T03:52:37;8.60;;;8.00;;
27303;SDS011;14791;52.392;13.092;2023-10-19T03:55:06;9.40;;;8.60;;
27303;SDS011;14791;52.392;13.092;2023-10-19T03:57:40;8.37;;;7.77;;
27303;SDS011;14791;52.392;13.092;2023-10-19T04:00:12;8.53;;;7.97;;
27303;SDS011;14791;52.392;13.092;2023-10-19T04:02:46;8.40;;;7.80;;
27303;SDS011;14791;52.392;13.092;2023-10-19T04:05:15;9.03;;;8.53;;
27303;SDS011;14791;52.392;13.092;2023-10-19T04:07:45;9.43;;;8.53;;
27303;SDS011;14791;52.392;13.092;2023-10-19T04:10:16;9.17;;;8.47;;
27303;SDS011;14791;52.392;13.092;2023-10-19T04:12:57;9.50;;;8.67;;
27303;SDS011;14791;52.392;13.092;2023-10-19T04:15:28;8.77;;;8.17;;
27303;SDS011;14791;52.392;13.092;2023-10-19T04:17:59;8.63;;;7.87;;
27303;SDS011;14791;52.392;13.092;2023-10-19T04:20:28;9.33;;;8.53;;
27303;SDS011;14791;52.392;13.092;2023-10-19T04:22:58;9.23;;;8.53;;
27303;SDS011;14791;52.392;13.092;2023-10-19T04:25:29;9.77;;;8.93;;
27303;SDS011;14791;52.392;13.092;2023-10-19T04:27:57;9.33;;;8.63;;
27303;SDS011;14791;52.392;13.092;2023-10-19T04:30:27;8.93;;;8.33;;
27303;SDS011;14791;52.392;13.092;2023-10-19T04:32:58;9.43;;;8.73;;
27303;SDS011;14791;52.392;13.092;2023-10-19T04:35:28;9.70;;;8.83;;
27303;SDS011;14791;52.392;13.092;2023-10-19T04:37:59;9.83;;;9.03;;
27303;SDS011;14791;52.392;13.092;2023-10-19T04:40:28;8.60;;;7.90;;
27303;SDS011;14791;52.392;13.092;2023-10-19T04:42:57;9.50;;;8.80;;
27303;SDS011;14791;52.392;13.092;2023-10-19T04:45:26;9.13;;;8.53;;
27303;SDS011;14791;52.392;13.092;2023-10-19T04:47:56;8.83;;;8.13;;
27303;SDS011;14791;52.392;13.092;2023-10-19T04:50:25;9.23;;;8.60;;
27303;SDS011;14791;52.392;13.092;2023-10-19T04:52:54;9.23;;;8.63;;
27303;SDS011;14791;52.392;13.092;2023-10-19T04:55:23;9.87;;;8.97;;
27303;SDS011;14791;52.392;13.092;2023-10-19T04:57:52;11.03;;;10.13;;
27303;SDS011;14791;52.392;13.092;2023-10-19T05:00:22;10.00;;;9.27;;
27303;SDS011;14791;52.392;13.092;2023-10-19T05:02:51;10.10;;;9.20;;
27303;SDS011;14791;52.392;13.092;2023-10-19T05:05:20;10.77;;;9.80;;
27303;SDS011;14791;52.392;13.092;2023-10-19T05:07:49;10.60;;;9.70;;
27303;SDS011;14791;52.392;13.092;2023-10-19T05:10:18;10.10;;;9.30;;
27303;SDS011;14791;52.392;13.092;2023-10-19T05:12:47;10.53;;;9.73;;
27303;SDS011;14791;52.392;13.092;2023-10-19T05:15:16;10.20;;;9.33;;
27303;SDS011;14791;52.392;13.092;2023-10-19T05:17:45;10.87;;;9.97;;
27303;SDS011;14791;52.392;13.092;2023-10-19T05:20:14;9.70;;;9.00;;
27303;SDS011;14791;52.392;13.092;2023-10-19T05:22:43;10.60;;;9.60;;
27303;SDS011;14791;52.392;13.092;2023-10-19T05:25:12;11.17;;;10.27;;
27303;SDS011;14791;52.392;13.092;2023-10-19T05:27:41;9.47;;;8.63;;
27303;SDS011;14791;52.392;13.092;2023-10-19T05:30:14;10.37;;;9.47;;
27303;SDS011;14791;52.392;13.092;2023-10-19T05:32:50;10.47;;;9.67;;
27303;SDS011;14791;52.392;13.092;2023-10-19T05:35:19;11.13;;;10.20;;
27303;SDS011;14791;52.392;13.092;2023-10-19T05:37:52;10.10;;;9.27;;
27303;SDS011;14791;52.392;13.092;2023-10-19T05:40:24;10.93;;;9.83;;
27303;SDS011;14791;52.392;13.092;2023-10-19T05:42:59;11.13;;;10.13;;
27303;SDS011;14791;52.392;13.092;2023-10-19T05:45:28;11.93;;;10.83;;
27303;SDS011;14791;52.392;13.092;2023-10-19T05:47:57;10.90;;;10.07;;
27303;SDS011;14791;52.392;13.092;2023-10-19T05:50:27;11.10;;;10.10;;
27303;SDS011;14791;52.392;13.092;2023-10-19T05:52:56;11.10;;;10.00;;
27303;SDS011;14791;52.392;13.092;2023-10-19T05:55:25;11.90;;;10.70;;
27303;SDS011;14791;52.392;13.092;2023-10-19T05:57:54;11.23;;;10.13;;
27303;SDS011;14791;52.392;13.092;2023-10-19T06:00:23;11.90;;;10.90;;
27303;SDS011;14791;52.392;13.092;2023-10-19T06:02:54;11.43;;;10.20;;
27303;SDS011;14791;52.392;13.092;2023-10-19T06:05:23;12.00;;;10.90;;
27303;SDS011;14791;52.392;13.092;2023-10-19T06:07:52;9.90;;;9.13;;
27303;SDS011;14791;52.392;13.092;2023-10-19T06:10:21;11.13;;;10.13;;
27303;SDS011;14791;52.392;13.092;2023-10-19T06:12:50;10.53;;;9.77;;
27303;SDS011;14791;52.392;13.092;2023-10-19T06:15:21;11.20;;;10.33;;
27303;SDS011;14791;52.392;13.092;2023-10-19T06:17:55;10.53;;;9.63;;
27303;SDS011;14791;52.392;13.092;2023-10-19T06:20:23;11.13;;;10.20;;
27303;SDS011;14791;52.392;13.092;2023-10-19T06:22:55;11.40;;;10.53;;
27303;SDS011;14791;52.392;13.092;2023-10-19T06:25:26;11.70;;;10.70;;
27303;SDS011;14791;52.392;13.092;2023-10-19T06:27:55;11.10;;;10.20;;
27303;SDS011;14791;52.392;13.092;2023-10-19T06:30:26;12.07;;;11.07;;
27303;SDS011;14791;52.392;13.092;2023-10-19T06:32:56;11.13;;;10.20;;
27303;SDS011;14791;52.392;13.092;2023-10-19T06:35:30;11.13;;;10.27;;
27303;SDS011;14791;52.392;13.092;2023-10-19T06:38:00;11.10;;;10.20;;
27303;SDS011;14791;52.392;13.092;2023-10-19T06:40:30;10.83;;;10.03;;
27303;SDS011;14791;52.392;13.092;2023-10-19T06:43:03;11.50;;;10.50;;
27303;SDS011;14791;52.392;13.092;2023-10-19T06:45:32;10.77;;;9.97;;
27303;SDS011;14791;52.392;13.092;2023-10-19T06:48:01;10.90;;;10.10;;
27303;SDS011;14791;52.392;13.092;2023-10-19T06:50:31;11.93;;;10.93;;
27303;SDS011;14791;52.392;13.092;2023-10-19T06:53:00;12.33;;;10.80;;
27303;SDS011;14791;52.392;13.092;2023-10-19T06:55:31;11.60;;;10.70;;
27303;SDS011;14791;52.392;13.092;2023-10-19T06:58:00;12.23;;;11.20;;
27303;SDS011;14791;52.392;13.092;2023-10-19T07:00:29;11.20;;;10.30;;
27303;SDS011;14791;52.392;13.092;2023-10-19T07:03:00;11.53;;;10.53;;
27303;SDS011;14791;52.392;13.092;2023-10-19T07:05:30;11.03;;;10.03;;
27303;SDS011;14791;52.392;13.092;2023-10-19T07:07:59;11.47;;;10.60;;
27303;SDS011;14791;52.392;13.092;2023-10-19T07:10:29;10.33;;;9.63;;
27303;SDS011;14791;52.392;13.092;2023-10-19T07:12:59;11.30;;;10.40;;
27303;SDS011;14791;52.392;13.092;2023-10-19T07:15:28;10.37;;;9.43;;
27303;SDS011;14791;52.392;13.092;2023-10-19T07:17:57;14.00;;;12.70;;
27303;SDS011;14791;52.392;13.092;2023-10-19T07:20:26;12.17;;;11.17;;
27303;SDS011;14791;52.392;13.092;2023-10-19T07:23:03;11.47;;;10.67;;
27303;SDS011;14791;52.392;13.092;2023-10-19T07:25:40;11.80;;;10.70;;
27303;SDS011;14791;52.392;13.092;2023-10-19T07:28:12;11.03;;;10.30;;
27303;SDS011;14791;52.392;13.092;2023-10-19T07:30:41;11.57;;;10.67;;
27303;SDS011;14791;52.392;13.092;2023-10-19T07:33:11;11.73;;;10.73;;
27303;SDS011;14791;52.392;13.092;2023-10-19T07:35:45;10.83;;;10.00;;
27303;SDS011;14791;52.392;13.092;2023-10-19T07:38:17;11.77;;;10.77;;
27303;SDS011;14791;52.392;13.092;2023-10-19T07:40:47;11.60;;;10.53;;
27303;SDS011;14791;52.392;13.092;2023-10-19T07:43:19;11.90;;;11.00;;
27303;SDS011;14791;52.392;13.092;2023-10-19T07:45:48;11.40;;;10.50;;
27303;SDS011;14791;52.392;13.092;2023-10-19T07:48:19;12.13;;;11.13;;
27303;SDS011;14791;52.392;13.092;2023-10-19T07:50:48;11.83;;;10.97;;
27303;SDS011;14791;52.392;13.092;2023-10-19T07:53:17;11.87;;;10.93;;
27303;SDS011;14791;52.392;13.092;2023-10-19T07:55:46;12.87;;;11.77;;
27303;SDS011;14791;52.392;13.092;2023-10-19T07:58:15;11.87;;;10.90;;
27303;SDS011;14791;52.392;13.092;2023-10-19T08:00:44;11.57;;;10.67;;
27303;SDS011;14791;52.392;13.092;2023-10-19T08:03:13;12.43;;;11.40;;
27303;SDS011;14791;52.392;13.092;2023-10-19T08:05:44;12.00;;;10.90;;
27303;SDS011;14791;52.392;13.092;2023-10-19T08:08:13;11.97;;;10.97;;
27303;SDS011;14791;52.392;13.092;2023-10-19T08:10:42;11.97;;;10.97;;
27303;SDS011;14791;52.392;13.092;2023-10-19T08:13:11;11.77;;;10.87;;
27303;SDS011;14791;52.392;13.092;2023-10-19T08:15:40;13.60;;;12.40;;
27303;SDS011;14791;52.392;13.092;2023-10-19T08:18:09;12.67;;;11.63;;
27303;SDS011;14791;52.392;13.092;2023-10-19T08:20:39;11.73;;;10.60;;
27303;SDS011;14791;52.392;13.092;2023-10-19T08:23:09;11.93;;;10.83;;
27303;SDS011;14791;52.392;13.092;2023-10-19T08:25:37;11.73;;;10.83;;
27303;SDS011;14791;52.392;13.092;2023-10-19T08:28:07;11.70;;;10.80;;
27303;SDS011;14791;52.392;13.092;2023-10-19T08:30:36;11.10;;;10.07;;
27303;SDS011;14791;52.392;13.092;2023-10-19T08:33:07;12.13;;;11.13;;
27303;SDS011;14791;52.392;13.092;2023-10-19T08:35:36;12.13;;;11.00;;
27303;SDS011;14791;52.392;13.092;2023-10-19T08:38:05;11.63;;;10.50;;
27303;SDS011;14791;52.392;13.092;2023-10-19T08:40:35;11.73;;;10.77;;
27303;SDS011;14791;52.392;13.092;2023-10-19T08:43:05;11.80;;;10.93;;
27303;SDS011;14791;52.392;13.092;2023-10-19T08:45:35;12.03;;;10.93;;
27303;SDS011;14791;52.392;13.092;2023-10-19T08:48:05;13.70;;;12.57;;
27303;SDS011;14791;52.392;13.092;2023-10-19T08:50:35;11.70;;;10.77;;
27303;SDS011;14791;52.392;13.092;2023-10-19T08:53:06;12.20;;;11.10;;
27303;SDS011;14791;52.392;13.092;2023-10-19T08:55:36;12.37;;;11.33;;
27303;SDS011;14791;52.392;13.092;2023-10-19T08:58:05;11.27;;;10.37;;
27303;SDS011;14791;52.392;13.092;2023-10-19T09:00:44;11.67;;;10.80;;
27303;SDS011;14791;52.392;13.092;2023-10-19T09:03:18;11.67;;;10.67;;
27303;SDS011;14791;52.392;13.092;2023-10-19T09:05:49;12.13;;;10.90;;
27303;SDS011;14791;52.392;13.092;2023-10-19T09:08:18;12.07;;;10.97;;
27303;SDS011;14791;52.392;13.092;2023-10-19T09:10:49;12.27;;;11.07;;
27303;SDS011;14791;52.392;13.092;2023-10-19T09:13:23;12.10;;;10.70;;
27303;SDS011;14791;52.392;13.092;2023-10-19T09:15:52;12.83;;;11.63;;
27303;SDS011;14791;52.392;13.092;2023-10-19T09:18:27;13.10;;;12.00;;
27303;SDS011;14791;52.392;13.092;2023-10-19T09:20:57;11.47;;;10.63;;
27303;SDS011;14791;52.392;13.092;2023-10-19T09:23:31;11.83;;;10.93;;
27303;SDS011;14791;52.392;13.092;2023-10-19T09:26:00;12.53;;;11.47;;
27303;SDS011;14791;52.392;13.092;2023-10-19T09:28:31;12.10;;;11.17;;
27303;SDS011;14791;52.392;13.092;2023-10-19T09:31:01;11.53;;;10.67;;
27303;SDS011;14791;52.392;13.092;2023-10-19T09:33:31;11.50;;;10.60;;
27303;SDS011;14791;52.392;13.092;2023-10-19T09:36:01;12.67;;;11.53;;
27303;SDS011;14791;52.392;13.092;2023-10-19T09:38:36;11.70;;;10.80;;
27303;SDS011;14791;52.392;13.092;2023-10-19T09:41:05;11.83;;;10.93;;
27303;SDS011;14791;52.392;13.092;2023-10-19T09:43:37;12.17;;;11.17;;
27303;SDS011;14791;52.392;13.092;2023-10-19T09:46:08;11.43;;;10.63;;
27303;SDS011;14791;52.392;13.092;2023-10-19T09:48:43;12.10;;;11.10;;
27303;SDS011;14791;52.392;13.092;2023-10-19T09:51:16;12.10;;;10.97;;
27303;SDS011;14791;52.392;13.092;2023-10-19T09:53:53;12.17;;;11.23;;
27303;SDS011;14791;52.392;13.092;2023-10-19T09:56:38;11.63;;;10.70;;
27303;SDS011;14791;52.392;13.092;2023-10-19T09:59:13;11.50;;;10.70;;
27303;SDS011;14791;52.392;13.092;2023-10-19T10:04:44;10.43;;;9.63;;
27303;SDS011;14791;52.392;13.092;2023-10-19T10:07:14;11.30;;;10.50;;
27303;SDS011;14791;52.392;13.092;2023-10-19T10:09:43;12.80;;;11.67;;
27303;SDS011;14791;52.392;13.092;2023-10-19T10:12:17;11.37;;;10.47;;
27303;SDS011;14791;52.392;13.092;2023-10-19T10:14:55;11.53;;;10.63;;
27303;SDS011;14791;52.392;13.092;2023-10-19T10:17:30;11.50;;;10.50;;
27303;SDS011;14791;52.392;13.092;2023-10-19T10:22:45;12.00;;;11.07;;
27303;SDS011;14791;52.392;13.092;2023-10-19T10:25:27;11.57;;;10.73;;
27303;SDS011;14791;52.392;13.092;2023-10-19T10:27:58;10.93;;;10.13;;
27303;SDS011;14791;52.392;13.092;2023-10-19T10:30:28;12.27;;;11.33;;
27303;SDS011;14791;52.392;13.092;2023-10-19T10:32:57;12.30;;;11.40;;
27303;SDS011;14791;52.392;13.092;2023-10-19T10:38:10;11.87;;;11.07;;
27303;SDS011;14791;52.392;13.092;2023-10-19T10:40:44;11.07;;;10.23;;
27303;SDS011;14791;52.392;13.092;2023-10-19T10:43:14;12.73;;;11.63;;
27303;SDS011;14791;52.392;13.092;2023-10-19T10:45:44;12.70;;;11.60;;
27303;SDS011;14791;52.392;13.092;2023-10-19T10:48:14;12.50;;;11.33;;
27303;SDS011;14791;52.392;13.092;2023-10-19T10:50:44;11.33;;;10.53;;
27303;SDS011;14791;52.392;13.092;2023-10-19T10:53:13;10.30;;;9.60;;
27303;SDS011;14791;52.392;13.092;2023-10-19T10:55:43;10.67;;;10.00;;
27303;SDS011;14791;52.392;13.092;2023-10-19T10:58:15;10.10;;;9.40;;
27303;SDS011;14791;52.392;13.092;2023-10-19T11:00:45;10.03;;;9.40;;
27303;SDS011;14791;52.392;13.092;2023-10-19T11:03:16;11.43;;;10.53;;
27303;SDS011;14791;52.392;13.092;2023-10-19T11:05:45;11.10;;;10.40;;
27303;SDS011;14791;52.392;13.092;2023-10-19T11:08:14;12.77;;;11.80;;
27303;SDS011;14791;52.392;13.092;2023-10-19T11:10:45;10.27;;;9.57;;
27303;SDS011;14791;52.392;13.092;2023-10-19T11:13:15;9.73;;;9.13;;
27303;SDS011;14791;52.392;13.092;2023-10-19T11:15:53;11.70;;;10.90;;
27303;SDS011;14791;52.392;13.092;2023-10-19T11:18:28;9.93;;;9.33;;
27303;SDS011;14791;52.392;13.092;2023-10-19T11:21:07;9.97;;;9.27;;
27303;SDS011;14791;52.392;13.092;2023-10-19T11:23:45;10.00;;;9.30;;
27303;SDS011;14791;52.392;13.092;2023-10-19T11:26:20;9.37;;;8.77;;
27303;SDS011;14791;52.392;13.092;2023-10-19T11:28:46;10.03;;;9.37;;
27303;SDS011;14791;52.392;13.092;2023-10-19T11:31:21;9.00;;;8.50;;
27303;SDS011;14791;52.392;13.092;2023-10-19T11:33:51;9.27;;;8.73;;
27303;SDS011;14791;52.392;13.092;2023-10-19T11:36:25;10.83;;;10.00;;
27303;SDS011;14791;52.392;13.092;2023-10-19T11:38:54;9.77;;;9.17;;
27303;SDS011;14791;52.392;13.092;2023-10-19T11:41:24;9.90;;;9.30;;
27303;SDS011;14791;52.392;13.092;2023-10-19T11:43:53;9.20;;;8.67;;
27303;SDS011;14791;52.392;13.092;2023-10-19T11:46:22;9.30;;;8.70;;
27303;SDS011;14791;52.392;13.092;2023-10-19T11:48:52;9.77;;;9.17;;
27303;SDS011;14791;52.392;13.092;2023-10-19T11:51:21;9.77;;;9.17;;
27303;SDS011;14791;52.392;13.092;2023-10-19T11:53:50;10.20;;;9.50;;
27303;SDS011;14791;52.392;13.092;2023-10-19T11:56:19;10.00;;;9.30;;
27303;SDS011;14791;52.392;13.092;2023-10-19T11:58:48;9.30;;;8.80;;
27303;SDS011;14791;52.392;13.092;2023-10-19T12:01:17;9.67;;;9.07;;
27303;SDS011;14791;52.392;13.092;2023-10-19T12:03:46;9.40;;;8.80;;
27303;SDS011;14791;52.392;13.092;2023-10-19T12:06:15;9.83;;;9.23;;
27303;SDS011;14791;52.392;13.092;2023-10-19T12:08:47;8.87;;;8.23;;
27303;SDS011;14791;52.392;13.092;2023-10-19T12:11:16;8.50;;;7.90;;
27303;SDS011;14791;52.392;13.092;2023-10-19T12:13:49;8.63;;;8.10;;
27303;SDS011;14791;52.392;13.092;2023-10-19T12:16:18;8.50;;;7.90;;
27303;SDS011;14791;52.392;13.092;2023-10-19T12:18:48;9.07;;;8.37;;
27303;SDS011;14791;52.392;13.092;2023-10-19T12:21:17;9.27;;;8.70;;
27303;SDS011;14791;52.392;13.092;2023-10-19T12:23:47;8.50;;;8.00;;
27303;SDS011;14791;52.392;13.092;2023-10-19T12:26:18;7.80;;;7.30;;
27303;SDS011;14791;52.392;13.092;2023-10-19T12:28:47;8.37;;;7.77;;
27303;SDS011;14791;52.392;13.092;2023-10-19T12:31:16;8.90;;;8.20;;
27303;SDS011;14791;52.392;13.092;2023-10-19T12:33:45;10.97;;;10.17;;
27303;SDS011;14791;52.392;13.092;2023-10-19T12:36:14;9.47;;;8.87;;
27303;SDS011;14791;52.392;13.092;2023-10-19T12:38:51;8.43;;;7.93;;
27303;SDS011;14791;52.392;13.092;2023-10-19T12:41:21;8.70;;;8.10;;
27303;SDS011;14791;52.392;13.092;2023-10-19T12:43:51;8.17;;;7.77;;
27303;SDS011;14791;52.392;13.092;2023-10-19T12:46:22;9.37;;;8.87;;
27303;SDS011;14791;52.392;13.092;2023-10-19T12:48:51;9.33;;;8.60;;
27303;SDS011;14791;52.392;13.092;2023-10-19T12:51:24;8.53;;;8.03;;
27303;SDS011;14791;52.392;13.092;2023-10-19T12:53:54;9.67;;;9.07;;
27303;SDS011;14791;52.392;13.092;2023-10-19T12:56:23;9.23;;;8.63;;
27303;SDS011;14791;52.392;13.092;2023-10-19T12:58:53;8.90;;;8.40;;
27303;SDS011;14791;52.392;13.092;2023-10-19T13:01:22;8.93;;;8.43;;
27303;SDS011;14791;52.392;13.092;2023-10-19T13:03:53;9.80;;;9.10;;
27303;SDS011;14791;52.392;13.092;2023-10-19T13:06:22;10.00;;;9.30;;
27303;SDS011;14791;52.392;13.092;2023-10-19T13:08:53;9.73;;;9.20;;
27303;SDS011;14791;52.392;13.092;2023-10-19T13:11:22;9.90;;;9.23;;
27303;SDS011;14791;52.392;13.092;2023-10-19T13:13:51;9.40;;;8.87;;
27303;SDS011;14791;52.392;13.092;2023-10-19T13:16:20;10.53;;;9.83;;
27303;SDS011;14791;52.392;13.092;2023-10-19T13:18:49;10.73;;;9.93;;
27303;SDS011;14791;52.392;13.092;2023-10-19T13:21:18;9.87;;;9.17;;
27303;SDS011;14791;52.392;13.092;2023-10-19T13:23:52;9.97;;;9.27;;
27303;SDS011;14791;52.392;13.092;2023-10-19T13:26:21;10.70;;;9.93;;
27303;SDS011;14791;52.392;13.092;2023-10-19T13:28:50;10.83;;;10.07;;
27303;SDS011;14791;52.392;13.092;2023-10-19T13:31:20;11.83;;;10.93;;
27303;SDS011;14791;52.392;13.092;2023-10-19T13:33:49;10.23;;;9.60;;
27303;SDS011;14791;52.392;13.092;2023-10-19T13:36:19;10.60;;;9.90;;
27303;SDS011;14791;52.392;13.092;2023-10-19T13:38:48;11.40;;;10.50;;
27303;SDS011;14791;52.392;13.092;2023-10-19T13:41:17;10.20;;;9.33;;
27303;SDS011;14791;52.392;13.092;2023-10-19T13:43:46;10.07;;;9.33;;
27303;SDS011;14791;52.392;13.092;2023-10-19T13:46:15;11.37;;;10.57;;
27303;SDS011;14791;52.392;13.092;2023-10-19T13:48:44;10.83;;;10.03;;
27303;SDS011;14791;52.392;13.092;2023-10-19T13:51:15;12.00;;;11.10;;
27303;SDS011;14791;52.392;13.092;2023-10-19T13:53:47;11.27;;;10.47;;
27303;SDS011;14791;52.392;13.092;2023-10-19T13:56:17;10.90;;;10.17;;
27303;SDS011;14791;52.392;13.092;2023-10-19T13:58:46;10.30;;;9.50;;
27303;SDS011;14791;52.392;13.092;2023-10-19T14:01:15;9.80;;;9.20;;
27303;SDS011;14791;52.392;13.092;2023-10-19T14:03:44;11.30;;;10.40;;
27303;SDS011;14791;52.392;13.092;2023-10-19T14:06:14;11.37;;;10.57;;
27303;SDS011;14791;52.392;13.092;2023-10-19T14:08:43;12.00;;;11.10;;
27303;SDS011;14791;52.392;13.092;2023-10-19T14:11:12;10.60;;;9.70;;
27303;SDS011;14791;52.392;13.092;2023-10-19T14:13:41;10.27;;;9.60;;
27303;SDS011;14791;52.392;13.092;2023-10-19T14:16:11;10.30;;;9.63;;
27303;SDS011;14791;52.392;13.092;2023-10-19T14:18:40;10.37;;;9.70;;
27303;SDS011;14791;52.392;13.092;2023-10-19T14:21:11;11.43;;;10.67;;
27303;SDS011;14791;52.392;13.092;2023-10-19T14:23:44;10.67;;;9.80;;
27303;SDS011;14791;52.392;13.092;2023-10-19T14:26:15;10.10;;;9.40;;
27303;SDS011;14791;52.392;13.092;2023-10-19T14:28:44;10.53;;;9.73;;
27303;SDS011;14791;52.392;13.092;2023-10-19T14:31:14;10.93;;;10.23;;
27303;SDS011;14791;52.392;13.092;2023-10-19T14:33:43;10.73;;;9.97;;
27303;SDS011;14791;52.392;13.092;2023-10-19T14:36:13;11.53;;;10.63;;
27303;SDS011;14791;52.392;13.092;2023-10-19T14:38:42;11.37;;;10.57;;
27303;SDS011;14791;52.392;13.092;2023-10-19T14:41:13;10.70;;;10.00;;
27303;SDS011;14791;52.392;13.092;2023-10-19T14:43:42;10.77;;;9.77;;
27303;SDS011;14791;52.392;13.092;2023-10-19T14:46:11;10.43;;;9.83;;
27303;SDS011;14791;52.392;13.092;2023-10-19T14:48:40;12.10;;;11.03;;
27303;SDS011;14791;52.392;13.092;2023-10-19T14:51:09;11.60;;;10.67;;
27303;SDS011;14791;52.392;13.092;2023-10-19T14:53:38;11.63;;;10.83;;
27303;SDS011;14791;52.392;13.092;2023-10-19T14:56:07;11.33;;;10.43;;